Antikeros — SYPX — position and weather

sailwx.info

Track history (hours):
 
Tides and Currents Weather Stations Pressure Air Temp Water Temp Dewpoint Dewpoint Depression Visibility Wind Speed Wind Dir Waves Ship Positions

Antikeros

Last reported at 2017-Oct-31 10:00 UTC. Time now 2017-Nov-20 13:45 UTC.
Position N 31°01' W 123°12'.
Warning: this ship's position is 20 days out of date.

Length 228 m; draft 8 m.

Type: Tanker. MMSI: 240680000.

Date/timePositionNaut miles runAvg speedWind from/ knotsBaromVisibWave heightAir tempDewpointWater temp
2017-Oct-31 10:00N 31°01' W 123°12'1114.3
2017-Oct-31 09:16N 31°10' W 123°19'1114.4
2017-Oct-31 08:31N 31°19' W 123°26'013.8
2017-Oct-31 08:29N 31°19' W 123°27'914.3
2017-Oct-31 07:52N 31°26' W 123°33'1114.2
2017-Oct-31 07:05N 31°35' W 123°40'213.9
2017-Oct-31 06:57N 31°37' W 123°42'614.1
2017-Oct-31 06:30N 31°42' W 123°46'714.2
2017-Oct-31 06:00N 31°48' W 123°51'714.4
2017-Oct-31 05:30N 31°54' W 123°55'714.3
2017-Oct-31 05:00N 31°60' W 124°00'714.3
2017-Oct-31 04:30N 32°06' W 124°05'714.2
2017-Oct-31 04:00N 32°12' W 124°09'714.2
2017-Oct-31 03:29N 32°18' W 124°14'814.2
2017-Oct-31 02:56N 32°24' W 124°20'714.2
2017-Oct-31 02:26N 32°30' W 124°24'614.4
2017-Oct-31 02:00N 32°35' W 124°29'714.6
2017-Oct-31 01:30N 32°41' W 124°34'1814.7
2017-Oct-31 00:18N 32°55' W 124°46'1814.9
2017-Oct-30 23:05N 33°10' W 124°58'1115.1
2017-Oct-30 22:19N 33°20' W 125°05'3113.0
2017-Oct-30 19:55N 33°46' W 125°27'2510.4
2017-Oct-30 17:32N 34°08' W 125°40'010.5
2017-Oct-30 17:30N 34°08' W 125°40'6411.1
2017-Oct-30 11:43N 35°07' W 126°11'210.8
2017-Oct-30 11:30N 35°10' W 126°12'710.7
2017-Oct-30 10:50N 35°16' W 126°16'410.8
2017-Oct-30 10:27N 35°20' W 126°18'610.9
2017-Oct-30 09:52N 35°26' W 126°21'1611.1
2017-Oct-30 08:28N 35°40' W 126°29'16210.4
2017-Oct-29 16:48N 37°13' W 123°44'6 9.7
2017-Oct-29 16:09N 37°17' W 123°37'1 9.4
2017-Oct-29 15:59N 37°18' W 123°36'610.0
2017-Oct-29 15:26N 37°21' W 123°30'4 9.9
2017-Oct-29 15:00N 37°23' W 123°25'510.1
2017-Oct-29 14:30N 37°26' W 123°20'510.0
2017-Oct-29 14:00N 37°29' W 123°15'510.3
2017-Oct-29 13:30N 37°31' W 123°09'510.3
2017-Oct-29 13:00N 37°34' W 123°04'510.6
2017-Oct-29 12:30N 37°37' W 122°58'510.4
2017-Oct-29 12:00N 37°40' W 122°53'510.5
2017-Oct-29 11:30N 37°43' W 122°47'611.1
2017-Oct-29 11:00N 37°44' W 122°40'4 8.6
2017-Oct-29 10:30N 37°47' W 122°36'611.4
2017-Oct-29 10:00N 37°49' W 122°29'5 9.8
2017-Oct-29 09:30N 37°53' W 122°25'713.3
2017-Oct-29 09:00N 37°59' W 122°25'714.0
2017-Oct-29 08:30N 38°03' W 122°18'712.1
2017-Oct-29 07:58N 38°02' W 122°10'2 0.9
2017-Oct-29 06:06N 38°02' W 122°08'0 0.0
2017-Oct-29 05:36N 38°02' W 122°08'0 0.1
2017-Oct-29 05:30N 38°02' W 122°08'0 0.0
2017-Oct-29 05:00N 38°02' W 122°08'0 0.0
2017-Oct-29 04:30N 38°02' W 122°08'0 0.0
2017-Oct-29 03:48N 38°02' W 122°08'0 0.0
2017-Oct-28 19:00N 38°02' W 122°08'0 0.0
2017-Oct-28 18:30N 38°02' W 122°08'0 0.0
2017-Oct-28 18:00N 38°02' W 122°08'0 0.0
2017-Oct-28 17:30N 38°02' W 122°08'0 0.0
2017-Oct-28 16:42N 38°02' W 122°08'0 0.0
2017-Oct-28 16:12N 38°02' W 122°08'0 0.0
2017-Oct-28 15:54N 38°02' W 122°08'0 0.0
2017-Oct-28 15:30N 38°02' W 122°08'0 0.0
2017-Oct-28 15:00N 38°02' W 122°08'0 0.0
2017-Oct-28 14:30N 38°02' W 122°08'0 0.0
2017-Oct-28 13:54N 38°02' W 122°08'0 0.0
2017-Oct-28 13:30N 38°02' W 122°08'0 0.0
2017-Oct-28 13:00N 38°02' W 122°08'0 0.0
2017-Oct-28 12:30N 38°02' W 122°08'0 0.0
2017-Oct-28 12:00N 38°02' W 122°08'0 0.0
2017-Oct-28 11:24N 38°02' W 122°08'0 0.0
2017-Oct-28 11:00N 38°02' W 122°08'0 0.0
2017-Oct-28 10:30N 38°02' W 122°08'0 0.0
2017-Oct-28 10:00N 38°02' W 122°08'0 0.0
2017-Oct-28 09:24N 38°02' W 122°08'0 0.0
2017-Oct-28 06:48N 38°02' W 122°08'0 0.0
2017-Oct-28 06:30N 38°02' W 122°08'0 0.0
2017-Oct-27 11:57N 38°02' W 122°08'0 0.1
2017-Oct-27 11:30N 38°02' W 122°08'3 5.5
2017-Oct-27 10:58N 38°03' W 122°11'4 9.4
2017-Oct-27 10:30N 38°04' W 122°17'5 9.7
2017-Oct-27 10:01N 38°02' W 122°22'510.0
2017-Oct-27 09:31N 37°58' W 122°26'5 9.6
2017-Oct-27 09:01N 37°53' W 122°26'3 5.9
2017-Oct-27 08:30N 37°50' W 122°27'510.4
2017-Oct-27 08:01N 37°47' W 122°32'510.5
2017-Oct-27 07:30N 37°46' W 122°39'5 9.4
2017-Oct-27 07:01N 37°43' W 122°43'510.5
2017-Oct-27 06:31N 37°40' W 122°49'612.3
2017-Oct-27 06:01N 37°36' W 122°55'612.3
2017-Oct-27 05:31N 37°33' W 123°02'611.5
2017-Oct-27 05:01N 37°28' W 123°06'612.1
2017-Oct-27 04:31N 37°22' W 123°08'612.2
2017-Oct-27 04:01N 37°16' W 123°09'612.2
2017-Oct-27 03:31N 37°10' W 123°11'612.1
2017-Oct-27 03:01N 37°04' W 123°13'611.7
2017-Oct-27 02:31N 36°59' W 123°14'1 1.4
2017-Oct-27 02:01N 36°58' W 123°13'1 1.3
2017-Oct-27 01:31N 36°59' W 123°13'1 1.2
2017-Oct-27 01:00N 36°59' W 123°13'1 1.1
2017-Oct-27 00:31N 36°60' W 123°14'0 1.0
2017-Oct-27 00:01N 37°00' W 123°14'0 1.0
2017-Oct-26 23:31N 37°01' W 123°14'0 1.0
2017-Oct-26 23:01N 37°01' W 123°14'0 0.9
2017-Oct-26 22:31N 37°02' W 123°14'0 0.7
2017-Oct-26 22:00N 37°02' W 123°14'0 0.8
2017-Oct-26 21:31N 37°02' W 123°14'0 0.7
2017-Oct-26 21:01N 37°03' W 123°13'0 0.7
2017-Oct-26 20:31N 37°03' W 123°13'0 0.6
2017-Oct-26 20:00N 37°03' W 123°13'0 0.6
2017-Oct-26 19:30N 37°04' W 123°13'0 0.5
2017-Oct-26 19:01N 37°04' W 123°13'0 0.7
2017-Oct-26 18:31N 37°04' W 123°13'1 1.0
2017-Oct-26 18:01N 37°04' W 123°13'3 6.8
2017-Oct-26 17:31N 37°08' W 123°11'612.1
2017-Oct-26 17:00N 37°14' W 123°10'1 1.9
2017-Oct-26 16:31N 37°13' W 123°11'612.1
2017-Oct-26 16:00N 37°07' W 123°12'611.7
2017-Oct-26 15:31N 37°02' W 123°14'611.7
2017-Oct-26 15:00N 36°56' W 123°15'611.8
2017-Oct-26 14:31N 36°50' W 123°16'611.8
2017-Oct-26 14:01N 36°44' W 123°18'611.5
2017-Oct-26 13:31N 36°39' W 123°20'611.5
2017-Oct-26 13:01N 36°33' W 123°21'611.7
2017-Oct-26 12:31N 36°27' W 123°23'611.6
2017-Oct-26 12:01N 36°22' W 123°25'611.5
2017-Oct-26 11:31N 36°16' W 123°26'611.4
2017-Oct-26 11:01N 36°11' W 123°28'611.6
2017-Oct-26 10:31N 36°05' W 123°29'611.4
2017-Oct-26 10:00N 35°59' W 123°31'611.1
2017-Oct-26 09:31N 35°54' W 123°32'611.2
2017-Oct-26 09:01N 35°49' W 123°34'611.3
2017-Oct-26 08:31N 35°43' W 123°35'611.4
2017-Oct-26 08:01N 35°38' W 123°37'611.7
2017-Oct-26 07:30N 35°32' W 123°39'611.6
2017-Oct-26 07:00N 35°26' W 123°42'4 8.6
2017-Oct-26 06:30N 35°30' W 123°39'612.0
2017-Oct-26 06:00N 35°36' W 123°38'612.2
2017-Oct-26 05:31N 35°42' W 123°36'612.3
2017-Oct-26 05:01N 35°48' W 123°34'612.5
2017-Oct-26 04:30N 35°54' W 123°32'612.8
2017-Oct-26 04:01N 36°00' W 123°31'612.6
2017-Oct-26 03:30N 36°06' W 123°29'612.5
2017-Oct-26 03:01N 36°12' W 123°27'612.5
2017-Oct-26 02:31N 36°19' W 123°25'612.6
2017-Oct-26 02:01N 36°25' W 123°24'612.6
2017-Oct-26 01:30N 36°31' W 123°22'612.5
2017-Oct-26 01:00N 36°37' W 123°21'612.4
2017-Oct-26 00:31N 36°43' W 123°19'612.3
2017-Oct-26 00:01N 36°49' W 123°17'612.2
2017-Oct-25 23:31N 36°55' W 123°15'612.3
2017-Oct-25 23:01N 37°01' W 123°14'612.5
2017-Oct-25 22:31N 37°07' W 123°12'612.5
2017-Oct-25 22:01N 37°13' W 123°10'612.7
2017-Oct-25 21:31N 37°19' W 123°08'612.3
2017-Oct-25 21:01N 37°26' W 123°08'1 2.9
2017-Oct-25 20:31N 37°24' W 123°07'612.3
2017-Oct-25 20:01N 37°18' W 123°09'612.2
2017-Oct-25 19:30N 37°12' W 123°10'612.3
2017-Oct-25 19:01N 37°06' W 123°12'612.6
2017-Oct-25 18:31N 37°00' W 123°14'612.4
2017-Oct-25 18:01N 36°54' W 123°15'612.3
2017-Oct-25 17:30N 36°48' W 123°17'612.2
2017-Oct-25 17:01N 36°42' W 123°19'612.1
2017-Oct-25 16:31N 36°36' W 123°21'611.9
2017-Oct-25 16:01N 36°31' W 123°22'611.7
2017-Oct-25 15:31N 36°25' W 123°24'611.8
2017-Oct-25 15:00N 36°19' W 123°25'612.0
2017-Oct-25 14:31N 36°13' W 123°27'611.9
2017-Oct-25 14:01N 36°07' W 123°29'612.0
2017-Oct-25 13:31N 36°02' W 123°30'612.1
2017-Oct-25 13:01N 35°56' W 123°32'612.2
2017-Oct-25 12:31N 35°50' W 123°33'612.2
2017-Oct-25 12:01N 35°44' W 123°35'612.2
2017-Oct-25 11:31N 35°38' W 123°37'612.1
2017-Oct-25 11:00N 35°32' W 123°39'612.0
2017-Oct-25 10:31N 35°26' W 123°40'712.5
2017-Oct-25 09:59N 35°20' W 123°42'612.7
2017-Oct-25 09:30N 35°14' W 123°44'612.0
2017-Oct-25 09:00N 35°08' W 123°44'612.7
2017-Oct-25 08:31N 35°02' W 123°40'713.2
2017-Oct-25 08:00N 34°57' W 123°36'713.4
2017-Oct-25 07:31N 34°51' W 123°33'713.0
2017-Oct-25 07:00N 34°45' W 123°29'713.4
2017-Oct-25 06:31N 34°39' W 123°25'3413.3
2017-Oct-25 03:57N 34°09' W 123°05'613.3
2017-Oct-25 03:29N 34°04' W 123°01'613.1
2017-Oct-25 03:01N 33°59' W 122°57'713.1
2017-Oct-25 02:31N 33°53' W 122°54'612.9
2017-Oct-25 02:01N 33°47' W 122°50'712.9
2017-Oct-25 01:30N 33°41' W 122°46'612.7
2017-Oct-25 01:00N 33°36' W 122°42'612.2
2017-Oct-25 00:30N 33°31' W 122°39'5112.1
2017-Oct-24 20:16N 32°46' W 122°09'312.6
2017-Oct-24 20:00N 32°43' W 122°07'612.4
2017-Oct-24 19:31N 32°38' W 122°03'612.1
2017-Oct-24 19:01N 32°32' W 121°60'612.2
2017-Oct-24 18:30N 32°27' W 121°56'611.9
2017-Oct-24 18:01N 32°22' W 121°53'612.0
2017-Oct-24 17:31N 32°16' W 121°51'2211.3
2017-Oct-24 15:33N 32°12' W 121°25'112.5
2017-Oct-24 15:29N 32°12' W 121°24'612.3
2017-Oct-24 15:00N 32°13' W 121°17'612.1
2017-Oct-24 14:31N 32°13' W 121°10'712.2
2017-Oct-24 13:55N 32°13' W 121°02'1312.2
2017-Oct-24 12:53N 32°13' W 120°47'512.6
2017-Oct-24 12:31N 32°13' W 120°41'8912.1
2017-Oct-24 05:11N 33°00' W 119°12'212.9
2017-Oct-24 05:01N 33°02' W 119°10'612.7
2017-Oct-24 04:31N 33°07' W 119°06'612.8
2017-Oct-24 04:01N 33°13' W 119°02'612.8
2017-Oct-24 03:31N 33°18' W 118°58'712.8
2017-Oct-24 03:00N 33°23' W 118°53'613.1
2017-Oct-24 02:31N 33°29' W 118°49'713.3
2017-Oct-24 02:00N 33°34' W 118°44'613.0
2017-Oct-24 01:30N 33°40' W 118°40'813.5
2017-Oct-24 00:56N 33°46' W 118°35'613.1
2017-Oct-24 00:30N 33°51' W 118°32'3 6.8
2017-Oct-24 00:00N 33°54' W 118°30'0 0.2
2017-Oct-23 23:31N 33°54' W 118°30'1 1.5
2017-Oct-23 23:01N 33°54' W 118°29'1 1.8
2017-Oct-23 22:17N 33°55' W 118°27'0 0.2
2017-Oct-23 21:57N 33°55' W 118°27'0 0.0
2017-Oct-22 16:12N 33°55' W 118°27'0 0.1
2017-Oct-22 15:57N 33°55' W 118°27'0 0.4
2017-Oct-22 15:30N 33°55' W 118°27'1 1.9
2017-Oct-22 14:44N 33°54' W 118°29'1 0.1
2017-Oct-22 06:10N 33°53' W 118°29'0 0.0
2017-Oct-22 05:55N 33°53' W 118°29'0 0.0
2017-Oct-22 05:28N 33°53' W 118°29'0 0.0
2017-Oct-22 03:52N 33°53' W 118°29'0 0.0
2017-Oct-21 19:10N 33°53' W 118°29'0 0.2
2017-Oct-21 18:52N 33°53' W 118°29'0 0.0
2017-Oct-21 18:28N 33°53' W 118°29'0 0.0
2017-Oct-21 16:46N 33°53' W 118°29'  
Track history (hours):
 
Tides and Currents Weather Stations Pressure Air Temp Water Temp Dewpoint Dewpoint Depression Visibility Wind Speed Wind Dir Waves Ship Positions

Antikeros

Last reported at 2017-Oct-31 10:00 UTC. Time now 2017-Nov-20 13:45 UTC.
Position N 31°01' W 123°12'.
Warning: this ship's position is 20 days out of date.

Length 228 m; draft 8 m.

Type: Tanker. MMSI: 240680000.

Date/timePositionNaut miles runAvg speedWind from/ knotsBaromVisibWave heightAir tempDewpointWater temp
2017-Oct-31 10:00N 31°01' W 123°12'1114.3
2017-Oct-31 09:16N 31°10' W 123°19'1114.4
2017-Oct-31 08:31N 31°19' W 123°26'013.8
2017-Oct-31 08:29N 31°19' W 123°27'914.3
2017-Oct-31 07:52N 31°26' W 123°33'1114.2
2017-Oct-31 07:05N 31°35' W 123°40'213.9
2017-Oct-31 06:57N 31°37' W 123°42'614.1
2017-Oct-31 06:30N 31°42' W 123°46'714.2
2017-Oct-31 06:00N 31°48' W 123°51'714.4
2017-Oct-31 05:30N 31°54' W 123°55'714.3
2017-Oct-31 05:00N 31°60' W 124°00'714.3
2017-Oct-31 04:30N 32°06' W 124°05'714.2
2017-Oct-31 04:00N 32°12' W 124°09'714.2
2017-Oct-31 03:29N 32°18' W 124°14'814.2
2017-Oct-31 02:56N 32°24' W 124°20'714.2
2017-Oct-31 02:26N 32°30' W 124°24'614.4
2017-Oct-31 02:00N 32°35' W 124°29'714.6
2017-Oct-31 01:30N 32°41' W 124°34'1814.7
2017-Oct-31 00:18N 32°55' W 124°46'1814.9
2017-Oct-30 23:05N 33°10' W 124°58'1115.1
2017-Oct-30 22:19N 33°20' W 125°05'3113.0
2017-Oct-30 19:55N 33°46' W 125°27'2510.4
2017-Oct-30 17:32N 34°08' W 125°40'010.5
2017-Oct-30 17:30N 34°08' W 125°40'6411.1
2017-Oct-30 11:43N 35°07' W 126°11'210.8
2017-Oct-30 11:30N 35°10' W 126°12'710.7
2017-Oct-30 10:50N 35°16' W 126°16'410.8
2017-Oct-30 10:27N 35°20' W 126°18'610.9
2017-Oct-30 09:52N 35°26' W 126°21'1611.1
2017-Oct-30 08:28N 35°40' W 126°29'16210.4
2017-Oct-29 16:48N 37°13' W 123°44'6 9.7
2017-Oct-29 16:09N 37°17' W 123°37'1 9.4
2017-Oct-29 15:59N 37°18' W 123°36'610.0
2017-Oct-29 15:26N 37°21' W 123°30'4 9.9
2017-Oct-29 15:00N 37°23' W 123°25'510.1
2017-Oct-29 14:30N 37°26' W 123°20'510.0
2017-Oct-29 14:00N 37°29' W 123°15'510.3
2017-Oct-29 13:30N 37°31' W 123°09'510.3
2017-Oct-29 13:00N 37°34' W 123°04'510.6
2017-Oct-29 12:30N 37°37' W 122°58'510.4
2017-Oct-29 12:00N 37°40' W 122°53'510.5
2017-Oct-29 11:30N 37°43' W 122°47'611.1
2017-Oct-29 11:00N 37°44' W 122°40'4 8.6
2017-Oct-29 10:30N 37°47' W 122°36'611.4
2017-Oct-29 10:00N 37°49' W 122°29'5 9.8
2017-Oct-29 09:30N 37°53' W 122°25'713.3
2017-Oct-29 09:00N 37°59' W 122°25'714.0
2017-Oct-29 08:30N 38°03' W 122°18'712.1
2017-Oct-29 07:58N 38°02' W 122°10'2 0.9
2017-Oct-29 06:06N 38°02' W 122°08'0 0.0
2017-Oct-29 05:36N 38°02' W 122°08'0 0.1
2017-Oct-29 05:30N 38°02' W 122°08'0 0.0
2017-Oct-29 05:00N 38°02' W 122°08'0 0.0
2017-Oct-29 04:30N 38°02' W 122°08'0 0.0
2017-Oct-29 03:48N 38°02' W 122°08'0 0.0
2017-Oct-28 19:00N 38°02' W 122°08'0 0.0
2017-Oct-28 18:30N 38°02' W 122°08'0 0.0
2017-Oct-28 18:00N 38°02' W 122°08'0 0.0
2017-Oct-28 17:30N 38°02' W 122°08'0 0.0
2017-Oct-28 16:42N 38°02' W 122°08'0 0.0
2017-Oct-28 16:12N 38°02' W 122°08'0 0.0
2017-Oct-28 15:54N 38°02' W 122°08'0 0.0
2017-Oct-28 15:30N 38°02' W 122°08'0 0.0
2017-Oct-28 15:00N 38°02' W 122°08'0 0.0
2017-Oct-28 14:30N 38°02' W 122°08'0 0.0
2017-Oct-28 13:54N 38°02' W 122°08'0 0.0
2017-Oct-28 13:30N 38°02' W 122°08'0 0.0
2017-Oct-28 13:00N 38°02' W 122°08'0 0.0
2017-Oct-28 12:30N 38°02' W 122°08'0 0.0
2017-Oct-28 12:00N 38°02' W 122°08'0 0.0
2017-Oct-28 11:24N 38°02' W 122°08'0 0.0
2017-Oct-28 11:00N 38°02' W 122°08'0 0.0
2017-Oct-28 10:30N 38°02' W 122°08'0 0.0
2017-Oct-28 10:00N 38°02' W 122°08'0 0.0
2017-Oct-28 09:24N 38°02' W 122°08'0 0.0
2017-Oct-28 06:48N 38°02' W 122°08'0 0.0
2017-Oct-28 06:30N 38°02' W 122°08'0 0.0
2017-Oct-27 11:57N 38°02' W 122°08'0 0.1
2017-Oct-27 11:30N 38°02' W 122°08'3 5.5
2017-Oct-27 10:58N 38°03' W 122°11'4 9.4
2017-Oct-27 10:30N 38°04' W 122°17'5 9.7
2017-Oct-27 10:01N 38°02' W 122°22'510.0
2017-Oct-27 09:31N 37°58' W 122°26'5 9.6
2017-Oct-27 09:01N 37°53' W 122°26'3 5.9
2017-Oct-27 08:30N 37°50' W 122°27'510.4
2017-Oct-27 08:01N 37°47' W 122°32'510.5
2017-Oct-27 07:30N 37°46' W 122°39'5 9.4
2017-Oct-27 07:01N 37°43' W 122°43'510.5
2017-Oct-27 06:31N 37°40' W 122°49'612.3
2017-Oct-27 06:01N 37°36' W 122°55'612.3
2017-Oct-27 05:31N 37°33' W 123°02'611.5
2017-Oct-27 05:01N 37°28' W 123°06'612.1
2017-Oct-27 04:31N 37°22' W 123°08'612.2
2017-Oct-27 04:01N 37°16' W 123°09'612.2
2017-Oct-27 03:31N 37°10' W 123°11'612.1
2017-Oct-27 03:01N 37°04' W 123°13'611.7
2017-Oct-27 02:31N 36°59' W 123°14'1 1.4
2017-Oct-27 02:01N 36°58' W 123°13'1 1.3
2017-Oct-27 01:31N 36°59' W 123°13'1 1.2
2017-Oct-27 01:00N 36°59' W 123°13'1 1.1
2017-Oct-27 00:31N 36°60' W 123°14'0 1.0
2017-Oct-27 00:01N 37°00' W 123°14'0 1.0
2017-Oct-26 23:31N 37°01' W 123°14'0 1.0
2017-Oct-26 23:01N 37°01' W 123°14'0 0.9
2017-Oct-26 22:31N 37°02' W 123°14'0 0.7
2017-Oct-26 22:00N 37°02' W 123°14'0 0.8
2017-Oct-26 21:31N 37°02' W 123°14'0 0.7
2017-Oct-26 21:01N 37°03' W 123°13'0 0.7
2017-Oct-26 20:31N 37°03' W 123°13'0 0.6
2017-Oct-26 20:00N 37°03' W 123°13'0 0.6
2017-Oct-26 19:30N 37°04' W 123°13'0 0.5
2017-Oct-26 19:01N 37°04' W 123°13'0 0.7
2017-Oct-26 18:31N 37°04' W 123°13'1 1.0
2017-Oct-26 18:01N 37°04' W 123°13'3 6.8
2017-Oct-26 17:31N 37°08' W 123°11'612.1
2017-Oct-26 17:00N 37°14' W 123°10'1 1.9
2017-Oct-26 16:31N 37°13' W 123°11'612.1
2017-Oct-26 16:00N 37°07' W 123°12'611.7
2017-Oct-26 15:31N 37°02' W 123°14'611.7
2017-Oct-26 15:00N 36°56' W 123°15'611.8
2017-Oct-26 14:31N 36°50' W 123°16'611.8
2017-Oct-26 14:01N 36°44' W 123°18'611.5
2017-Oct-26 13:31N 36°39' W 123°20'611.5
2017-Oct-26 13:01N 36°33' W 123°21'611.7
2017-Oct-26 12:31N 36°27' W 123°23'611.6
2017-Oct-26 12:01N 36°22' W 123°25'611.5
2017-Oct-26 11:31N 36°16' W 123°26'611.4
2017-Oct-26 11:01N 36°11' W 123°28'611.6
2017-Oct-26 10:31N 36°05' W 123°29'611.4
2017-Oct-26 10:00N 35°59' W 123°31'611.1
2017-Oct-26 09:31N 35°54' W 123°32'611.2
2017-Oct-26 09:01N 35°49' W 123°34'611.3
2017-Oct-26 08:31N 35°43' W 123°35'611.4
2017-Oct-26 08:01N 35°38' W 123°37'611.7
2017-Oct-26 07:30N 35°32' W 123°39'611.6
2017-Oct-26 07:00N 35°26' W 123°42'4 8.6
2017-Oct-26 06:30N 35°30' W 123°39'612.0
2017-Oct-26 06:00N 35°36' W 123°38'612.2
2017-Oct-26 05:31N 35°42' W 123°36'612.3
2017-Oct-26 05:01N 35°48' W 123°34'612.5
2017-Oct-26 04:30N 35°54' W 123°32'612.8
2017-Oct-26 04:01N 36°00' W 123°31'612.6
2017-Oct-26 03:30N 36°06' W 123°29'612.5
2017-Oct-26 03:01N 36°12' W 123°27'612.5
2017-Oct-26 02:31N 36°19' W 123°25'612.6
2017-Oct-26 02:01N 36°25' W 123°24'612.6
2017-Oct-26 01:30N 36°31' W 123°22'612.5
2017-Oct-26 01:00N 36°37' W 123°21'612.4
2017-Oct-26 00:31N 36°43' W 123°19'612.3
2017-Oct-26 00:01N 36°49' W 123°17'612.2
2017-Oct-25 23:31N 36°55' W 123°15'612.3
2017-Oct-25 23:01N 37°01' W 123°14'612.5
2017-Oct-25 22:31N 37°07' W 123°12'612.5
2017-Oct-25 22:01N 37°13' W 123°10'612.7
2017-Oct-25 21:31N 37°19' W 123°08'612.3
2017-Oct-25 21:01N 37°26' W 123°08'1 2.9
2017-Oct-25 20:31N 37°24' W 123°07'612.3
2017-Oct-25 20:01N 37°18' W 123°09'612.2
2017-Oct-25 19:30N 37°12' W 123°10'612.3
2017-Oct-25 19:01N 37°06' W 123°12'612.6
2017-Oct-25 18:31N 37°00' W 123°14'612.4
2017-Oct-25 18:01N 36°54' W 123°15'612.3
2017-Oct-25 17:30N 36°48' W 123°17'612.2
2017-Oct-25 17:01N 36°42' W 123°19'612.1
2017-Oct-25 16:31N 36°36' W 123°21'611.9
2017-Oct-25 16:01N 36°31' W 123°22'611.7
2017-Oct-25 15:31N 36°25' W 123°24'611.8
2017-Oct-25 15:00N 36°19' W 123°25'612.0
2017-Oct-25 14:31N 36°13' W 123°27'611.9
2017-Oct-25 14:01N 36°07' W 123°29'612.0
2017-Oct-25 13:31N 36°02' W 123°30'612.1
2017-Oct-25 13:01N 35°56' W 123°32'612.2
2017-Oct-25 12:31N 35°50' W 123°33'612.2
2017-Oct-25 12:01N 35°44' W 123°35'612.2
2017-Oct-25 11:31N 35°38' W 123°37'612.1
2017-Oct-25 11:00N 35°32' W 123°39'612.0
2017-Oct-25 10:31N 35°26' W 123°40'712.5
2017-Oct-25 09:59N 35°20' W 123°42'612.7
2017-Oct-25 09:30N 35°14' W 123°44'612.0
2017-Oct-25 09:00N 35°08' W 123°44'612.7
2017-Oct-25 08:31N 35°02' W 123°40'713.2
2017-Oct-25 08:00N 34°57' W 123°36'713.4
2017-Oct-25 07:31N 34°51' W 123°33'713.0
2017-Oct-25 07:00N 34°45' W 123°29'713.4
2017-Oct-25 06:31N 34°39' W 123°25'3413.3
2017-Oct-25 03:57N 34°09' W 123°05'613.3
2017-Oct-25 03:29N 34°04' W 123°01'613.1
2017-Oct-25 03:01N 33°59' W 122°57'713.1
2017-Oct-25 02:31N 33°53' W 122°54'612.9
2017-Oct-25 02:01N 33°47' W 122°50'712.9
2017-Oct-25 01:30N 33°41' W 122°46'612.7
2017-Oct-25 01:00N 33°36' W 122°42'612.2
2017-Oct-25 00:30N 33°31' W 122°39'5112.1
2017-Oct-24 20:16N 32°46' W 122°09'312.6
2017-Oct-24 20:00N 32°43' W 122°07'612.4
2017-Oct-24 19:31N 32°38' W 122°03'612.1
2017-Oct-24 19:01N 32°32' W 121°60'612.2
2017-Oct-24 18:30N 32°27' W 121°56'611.9
2017-Oct-24 18:01N 32°22' W 121°53'612.0
2017-Oct-24 17:31N 32°16' W 121°51'2211.3
2017-Oct-24 15:33N 32°12' W 121°25'112.5
2017-Oct-24 15:29N 32°12' W 121°24'612.3
2017-Oct-24 15:00N 32°13' W 121°17'612.1
2017-Oct-24 14:31N 32°13' W 121°10'712.2
2017-Oct-24 13:55N 32°13' W 121°02'1312.2
2017-Oct-24 12:53N 32°13' W 120°47'512.6
2017-Oct-24 12:31N 32°13' W 120°41'8912.1
2017-Oct-24 05:11N 33°00' W 119°12'212.9
2017-Oct-24 05:01N 33°02' W 119°10'612.7
2017-Oct-24 04:31N 33°07' W 119°06'612.8
2017-Oct-24 04:01N 33°13' W 119°02'612.8
2017-Oct-24 03:31N 33°18' W 118°58'712.8
2017-Oct-24 03:00N 33°23' W 118°53'613.1
2017-Oct-24 02:31N 33°29' W 118°49'713.3
2017-Oct-24 02:00N 33°34' W 118°44'613.0
2017-Oct-24 01:30N 33°40' W 118°40'813.5
2017-Oct-24 00:56N 33°46' W 118°35'613.1
2017-Oct-24 00:30N 33°51' W 118°32'3 6.8
2017-Oct-24 00:00N 33°54' W 118°30'0 0.2
2017-Oct-23 23:31N 33°54' W 118°30'1 1.5
2017-Oct-23 23:01N 33°54' W 118°29'1 1.8
2017-Oct-23 22:17N 33°55' W 118°27'0 0.2
2017-Oct-23 21:57N 33°55' W 118°27'0 0.0
2017-Oct-22 16:12N 33°55' W 118°27'0 0.1
2017-Oct-22 15:57N 33°55' W 118°27'0 0.4
2017-Oct-22 15:30N 33°55' W 118°27'1 1.9
2017-Oct-22 14:44N 33°54' W 118°29'1 0.1
2017-Oct-22 06:10N 33°53' W 118°29'0 0.0
2017-Oct-22 05:55N 33°53' W 118°29'0 0.0
2017-Oct-22 05:28N 33°53' W 118°29'0 0.0
2017-Oct-22 03:52N 33°53' W 118°29'0 0.0
2017-Oct-21 19:10N 33°53' W 118°29'0 0.2
2017-Oct-21 18:52N 33°53' W 118°29'0 0.0
2017-Oct-21 18:28N 33°53' W 118°29'0 0.0
2017-Oct-21 16:46N 33°53' W 118°29'  

Dump ship's entire track history